Aeroboteco Virtual Airlines! Uma nuvem a frente.



 INFORMAÇÕES METEOROLÓGICAS
METAR FOR SBES
ADDS - METARS form results

(2027 UTC 17 June 2021)
Data provider http://aviationweather.gov/metar/data/
 
METAR text: SBES 172000Z 18009KT 7000 -DZ BKN009 BKN020 19/17 Q1020
Conditions at: SBES (SAO PEDRO DA ALD, BR) observed 2000 UTC 17 June 2021
Temperature: 19.0°C (66°F)
Dewpoint: 17.0°C (63°F) [RH = 88%]
Pressure (altimeter): 30.12 inches Hg (1020.0 mb)
Winds: from the S (180 degrees) at 10 MPH (9 knots; 4.6 m/s)
Visibility: 4 miles ( 7 km)
Ceiling: 900 feet AGL
Clouds: broken clouds at 900 feet AGL
broken clouds at 2000 feet AGL
Weather: -DZ  (light drizzle)

 MAPA DO AEROPORTO

 INFORMAÇÕES DA PISTA
Pista 7 Tamanho da pista 5906 ft Largura da pista 92 ft
Elevação da pista 0 ft Ranhura da pista 0 ft Proa da pista 0
Pista 25 Tamanho da pista 5906 ft Largura da pista 92 ft
Elevação da pista 0 ft Ranhura da pista 0 ft Proa da pista 0

 FREQUÊNCIAS DO AEROPORTO
Tipo APP Nome ALDEIA APP Frequência 119.45 MHZ
Tipo GND Nome GND Frequência 121.9 MHZ
Tipo TWR Nome ALDEIA TWR Frequência 118.3 MHZ

 AUXÍLIOS DE NAVEGAÇÃO PRÓXIMOS AO AEROPORTO
Tipo VOR-DME Nome Aldeia Frequência 112100 KHZ
Tipo NDB Nome Aldeia Frequência 345 KHZ